createdAt,value
2022-12-09T10:34:16.444Z,99805.20
2022-12-09T10:36:47.490Z,99799.83
2022-12-09T10:39:20.541Z,99799.54
2022-12-09T10:42:16.127Z,99800.23
2022-12-09T10:44:44.482Z,99802.69
2022-12-09T10:47:21.590Z,99804.61
2022-12-09T10:49:52.554Z,99803.21
2022-12-09T10:52:28.297Z,99802.94
2022-12-09T10:54:56.674Z,99800.69
2022-12-09T10:57:27.475Z,99798.15
2022-12-09T10:59:59.419Z,99801.67
2022-12-09T11:02:28.791Z,99798.59
2022-12-09T11:05:21.068Z,99796.69
2022-12-09T11:07:52.374Z,99794.34
2022-12-09T11:10:25.228Z,99793.85
2022-12-09T11:12:59.113Z,99798.08
2022-12-09T11:15:39.142Z,99795.54
2022-12-09T11:18:17.742Z,99793.12
2022-12-09T11:21:02.069Z,99794.41
2022-12-09T11:23:30.706Z,99793.87
2022-12-09T11:26:06.057Z,99795.05
2022-12-09T11:28:37.102Z,99789.94
2022-12-09T11:31:28.854Z,99790.80
2022-12-09T11:34:05.449Z,99796.52
2022-12-09T11:36:40.399Z,99793.05
2022-12-09T11:39:25.498Z,99791.94
2022-12-09T11:42:18.504Z,99791.00
2022-12-09T11:45:00.574Z,99790.06
2022-12-09T11:48:21.516Z,99785.11
2022-12-09T11:50:32.803Z,99782.37
2022-12-09T11:53:07.579Z,99780.21
2022-12-09T11:55:41.543Z,99781.71
2022-12-09T11:58:14.990Z,99780.26
2022-12-09T12:00:58.258Z,99780.09
2022-12-09T12:03:39.334Z,99777.06
2022-12-09T12:06:19.527Z,99779.80
2022-12-09T12:08:53.395Z,99783.32
2022-12-09T12:11:29.048Z,99782.05
2022-12-09T12:14:04.222Z,99780.84
2022-12-09T12:16:46.589Z,99774.23
2022-12-09T12:19:38.732Z,99773.69
2022-12-09T12:22:09.589Z,99773.05
2022-12-09T12:24:43.451Z,99774.04
2022-12-09T12:27:28.002Z,99773.66
2022-12-09T12:30:10.598Z,99774.32
2022-12-09T12:33:08.798Z,99778.70
2022-12-09T12:36:07.663Z,99779.55
2022-12-09T12:38:50.113Z,99776.59
2022-12-09T12:41:44.115Z,99773.65
2022-12-09T12:44:46.463Z,99774.56
2022-12-09T12:47:22.285Z,99777.16
2022-12-09T12:50:09.709Z,99777.65
2022-12-09T12:53:05.558Z,99775.29
2022-12-09T12:56:03.155Z,99774.91
2022-12-09T12:58:54.058Z,99771.80
2022-12-09T13:01:35.729Z,99773.91
2022-12-09T13:04:13.175Z,99774.19
2022-12-09T13:06:46.676Z,99778.96
2022-12-09T13:09:34.522Z,99785.77
2022-12-09T13:12:14.385Z,99788.23
2022-12-09T13:14:55.179Z,99787.77
2022-12-09T13:17:29.507Z,99788.30
2022-12-09T13:20:01.322Z,99787.27
2022-12-09T13:22:50.598Z,99788.55
2022-12-09T13:25:36.149Z,99786.63
2022-12-09T13:28:11.419Z,99791.88
2022-12-09T13:30:58.995Z,99793.30
2022-12-09T13:33:52.004Z,99794.19
2022-12-09T13:36:41.459Z,99796.41
2022-12-09T13:39:33.817Z,99797.36
2022-12-09T13:42:28.080Z,99791.44
2022-12-09T13:45:06.357Z,99792.42
2022-12-09T13:47:36.822Z,99791.06
2022-12-09T13:50:08.593Z,99789.37
2022-12-09T13:52:50.859Z,99788.20
2022-12-09T13:55:46.363Z,99788.13
2022-12-09T13:58:45.508Z,99785.66
2022-12-09T14:01:13.301Z,99788.34
2022-12-09T14:04:08.723Z,99786.19
2022-12-09T14:06:45.199Z,99791.34
2022-12-09T14:09:18.843Z,99792.90
2022-12-09T14:11:55.516Z,99796.48
2022-12-09T14:14:23.303Z,99798.94
2022-12-09T14:16:56.169Z,99795.38
2022-12-09T14:19:23.896Z,99799.80
2022-12-09T14:22:20.153Z,99798.81
2022-12-09T14:24:56.622Z,99800.77
2022-12-09T14:27:25.723Z,99805.45
2022-12-09T14:30:04.131Z,99811.33
2022-12-09T14:32:54.344Z,99810.48
2022-12-09T14:35:49.310Z,99808.38
2022-12-09T14:38:35.256Z,99806.98
2022-12-09T14:41:20.822Z,99802.30
2022-12-09T14:44:01.339Z,99791.95
2022-12-09T14:46:36.964Z,99790.52
2022-12-09T14:49:21.456Z,99788.17
2022-12-09T14:51:52.632Z,99785.09
2022-12-09T14:54:27.937Z,99786.86
2022-12-09T14:56:58.465Z,99779.35
2022-12-09T14:59:29.774Z,99778.34
2022-12-09T15:02:00.503Z,99776.10
2022-12-09T15:04:40.946Z,99776.93
2022-12-09T15:07:22.647Z,99769.00
2022-12-09T15:10:02.625Z,99773.94
2022-12-09T15:12:38.015Z,99779.39
2022-12-09T15:15:06.357Z,99781.02
2022-12-09T15:17:45.329Z,99779.20
2022-12-09T15:20:23.371Z,99779.42
2022-12-09T15:22:52.975Z,99781.48
2022-12-09T15:25:23.295Z,99777.77
2022-12-09T15:28:12.888Z,99777.23
2022-12-09T15:30:40.975Z,99774.91
2022-12-09T15:33:17.513Z,99774.81
2022-12-09T15:36:01.385Z,99771.19
2022-12-09T15:38:38.964Z,99769.22
2022-12-09T15:41:28.755Z,99764.39
2022-12-09T15:44:05.013Z,99766.54
2022-12-09T15:46:34.391Z,99760.27
2022-12-09T15:49:04.440Z,99763.36
2022-12-09T15:51:35.078Z,99759.26
2022-12-09T15:54:08.073Z,99753.72
2022-12-09T15:56:42.591Z,99749.88
2022-12-09T15:59:21.601Z,99748.68
2022-12-09T16:01:52.593Z,99748.98
2022-12-09T16:04:25.106Z,99742.65
2022-12-09T16:06:53.170Z,99741.16
2022-12-09T16:09:21.261Z,99739.66
2022-12-09T16:11:52.193Z,99734.23
2022-12-09T16:14:22.296Z,99729.30
2022-12-09T16:16:55.549Z,99727.45
2022-12-09T16:19:29.139Z,99736.42
2022-12-09T16:22:15.705Z,99730.31
2022-12-09T16:27:39.369Z,99732.33
2022-12-09T16:30:16.597Z,99735.23
2022-12-09T16:32:51.206Z,99732.27
2022-12-09T16:35:19.819Z,99732.73
2022-12-09T16:38:12.675Z,99726.49
2022-12-09T16:40:43.915Z,99730.63
2022-12-09T16:43:18.955Z,99729.23
2022-12-09T16:45:52.248Z,99728.52
2022-12-09T16:48:22.212Z,99729.13
2022-12-09T16:51:11.490Z,99727.56
2022-12-09T16:53:44.403Z,99728.05
2022-12-09T16:56:26.772Z,99719.27
2022-12-09T16:58:55.378Z,99714.05
2022-12-09T17:01:33.752Z,99716.52
2022-12-09T17:04:13.738Z,99719.33
2022-12-09T17:06:42.504Z,99719.94
2022-12-09T17:09:12.109Z,99720.86
2022-12-09T17:11:44.119Z,99729.45
2022-12-09T17:14:15.322Z,99732.94
2022-12-09T17:16:43.159Z,99725.53
2022-12-09T17:19:11.152Z,99722.55
2022-12-09T17:21:38.913Z,99720.88
2022-12-09T17:24:07.300Z,99719.15
2022-12-09T17:26:35.209Z,99720.34
2022-12-09T17:29:03.725Z,99720.69
2022-12-09T17:31:31.492Z,99723.55
2022-12-09T17:33:59.475Z,99725.84
2022-12-09T17:36:27.188Z,99720.42
2022-12-09T17:38:55.019Z,99715.88
2022-12-09T17:41:23.819Z,99719.59
2022-12-09T17:43:52.268Z,99719.67
2022-12-09T17:46:21.484Z,99721.41
2022-12-09T17:48:49.529Z,99727.30
2022-12-09T17:51:20.370Z,99729.30
2022-12-09T17:53:50.337Z,99728.60
2022-12-09T17:56:20.735Z,99724.73
2022-12-09T17:59:01.175Z,99724.08
2022-12-09T18:01:29.428Z,99728.31
2022-12-09T18:04:02.971Z,99732.05
2022-12-09T18:06:38.484Z,99726.40
2022-12-09T18:09:09.212Z,99721.91
2022-12-09T18:11:36.988Z,99719.27
2022-12-09T18:14:05.275Z,99714.13
2022-12-09T18:16:33.200Z,99711.89
2022-12-09T18:19:06.717Z,99707.55
2022-12-09T18:21:34.604Z,99708.30
2022-12-09T18:24:03.066Z,99705.80
2022-12-09T18:26:35.275Z,99711.01
2022-12-09T18:29:06.175Z,99701.61
2022-12-09T18:31:34.449Z,99702.95
2022-12-09T18:34:02.330Z,99707.00
2022-12-09T18:36:30.382Z,99704.33
2022-12-09T18:38:59.478Z,99701.61
2022-12-09T18:41:29.712Z,99699.98
2022-12-09T18:44:01.102Z,99697.73
2022-12-09T18:46:32.474Z,99697.37
2022-12-09T18:49:01.910Z,99700.12
2022-12-09T18:51:30.014Z,99699.52
2022-12-09T18:53:59.013Z,99700.09
2022-12-09T18:56:27.263Z,99696.83
2022-12-09T18:59:11.524Z,99698.34
2022-12-09T19:01:42.791Z,99701.41
2022-12-09T19:04:19.818Z,99702.13
2022-12-09T19:06:49.653Z,99702.70
2022-12-09T19:09:32.056Z,99702.90
2022-12-09T19:12:23.059Z,99703.67
2022-12-09T19:14:49.734Z,99704.41
2022-12-09T19:17:18.929Z,99701.95
2022-12-09T19:19:47.571Z,99702.34
2022-12-09T19:22:15.343Z,99705.27
2022-12-09T19:24:43.583Z,99705.46
2022-12-09T19:27:12.179Z,99703.81
2022-12-09T19:29:40.040Z,99707.51
2022-12-09T19:32:29.314Z,99704.86
2022-12-09T19:34:55.636Z,99708.70
2022-12-09T19:37:23.400Z,99703.86
2022-12-09T19:39:51.175Z,99697.90
2022-12-09T19:42:19.431Z,99695.98
2022-12-09T19:45:07.696Z,99694.85
2022-12-09T19:47:36.172Z,99693.77
2022-12-09T19:50:08.936Z,99693.70
2022-12-09T19:52:36.954Z,99694.60
2022-12-09T19:55:05.137Z,99694.48
2022-12-09T19:57:32.903Z,99695.23
2022-12-09T20:00:00.621Z,99690.72
2022-12-09T20:02:28.613Z,99687.45
2022-12-09T20:04:56.747Z,99689.85
2022-12-09T20:07:24.487Z,99689.73
2022-12-09T20:09:52.678Z,99693.46
2022-12-09T20:12:20.568Z,99691.64
2022-12-09T20:14:48.370Z,99694.35
2022-12-09T20:17:17.370Z,99697.18
2022-12-09T20:19:45.159Z,99693.65
2022-12-09T20:22:12.860Z,99694.48
2022-12-09T20:24:41.135Z,99689.09
2022-12-09T20:27:08.971Z,99685.34
2022-12-09T20:29:38.203Z,99682.16
2022-12-09T20:32:08.903Z,99684.37
2022-12-09T20:34:36.795Z,99685.38
2022-12-09T20:37:05.779Z,99687.39
2022-12-09T20:39:33.752Z,99686.71
2022-12-09T20:42:02.107Z,99689.20
2022-12-09T20:44:32.348Z,99689.38
2022-12-09T20:47:00.189Z,99689.23
2022-12-09T20:49:28.027Z,99684.59
2022-12-09T20:51:56.067Z,99682.09
2022-12-09T20:54:24.278Z,99679.77
2022-12-09T20:56:53.296Z,99674.06
2022-12-09T20:59:21.035Z,99671.95
2022-12-09T21:01:48.818Z,99668.09
2022-12-09T21:04:18.218Z,99662.73
2022-12-09T21:06:46.315Z,99654.52
2022-12-09T21:09:21.609Z,99646.98
2022-12-09T21:11:50.438Z,99642.74
2022-12-09T21:14:18.931Z,99645.57
2022-12-09T21:16:50.908Z,99646.36
2022-12-09T21:19:24.817Z,99647.86
2022-12-09T21:21:53.737Z,99655.27
2022-12-09T21:24:24.036Z,99652.41
2022-12-09T21:26:53.794Z,99654.81
2022-12-09T21:29:23.731Z,99655.70
2022-12-09T21:31:54.906Z,99658.78
2022-12-09T21:34:24.760Z,99657.48
2022-12-09T21:36:53.142Z,99657.02
2022-12-09T21:39:21.219Z,99655.73
2022-12-09T21:41:48.990Z,99654.09
2022-12-09T21:44:18.888Z,99654.77
2022-12-09T21:46:46.854Z,99656.48
2022-12-09T21:49:14.960Z,99656.17
2022-12-09T21:51:43.718Z,99654.33
2022-12-09T21:54:11.992Z,99650.81
2022-12-09T21:56:39.818Z,99637.73
2022-12-09T21:59:07.920Z,99634.70
